createdAt,value
2019-06-26T00:03:39.180Z,68.03
2019-06-26T00:07:44.326Z,68.17
2019-06-26T00:11:49.533Z,68.75
2019-06-26T00:15:54.636Z,69.57
2019-06-26T00:19:59.748Z,69.99
2019-06-26T00:24:04.949Z,69.31
2019-06-26T00:28:10.077Z,70.78
2019-06-26T00:32:16.254Z,71.44
2019-06-26T00:36:21.473Z,71.94
2019-06-26T00:40:26.632Z,71.45
2019-06-26T00:44:32.672Z,72.30
2019-06-26T00:48:37.668Z,73.73
2019-06-26T00:52:42.851Z,73.64
2019-06-26T00:56:47.978Z,72.68
2019-06-26T01:00:53.290Z,73.08
2019-06-26T01:05:00.630Z,73.23
2019-06-26T01:09:06.668Z,73.39
2019-06-26T01:13:12.333Z,73.67
2019-06-26T01:17:17.773Z,74.67
2019-06-26T01:21:22.952Z,74.86
2019-06-26T01:25:28.226Z,74.91
2019-06-26T01:29:33.384Z,73.53
2019-06-26T01:33:38.344Z,73.95
2019-06-26T01:37:43.526Z,73.74
2019-06-26T01:41:48.843Z,73.45
2019-06-26T01:45:54.057Z,74.19
2019-06-26T01:49:59.144Z,75.19
2019-06-26T01:54:04.382Z,76.22
2019-06-26T01:58:09.886Z,77.46
2019-06-26T02:02:15.443Z,77.52
2019-06-26T02:06:20.722Z,77.18
2019-06-26T02:10:25.864Z,77.10
2019-06-26T02:14:32.178Z,77.40
2019-06-26T02:18:45.266Z,78.02
2019-06-26T02:22:50.734Z,78.29
2019-06-26T02:26:55.930Z,78.52
2019-06-26T02:31:00.993Z,78.29
2019-06-26T02:35:09.583Z,78.36
2019-06-26T02:39:13.564Z,78.80
2019-06-26T02:43:18.861Z,80.13
2019-06-26T02:47:23.970Z,80.07
2019-06-26T02:51:29.114Z,80.35
2019-06-26T02:55:34.256Z,80.10
2019-06-26T02:59:39.763Z,80.37
2019-06-26T03:03:45.259Z,79.72
2019-06-26T03:07:50.446Z,80.35
2019-06-26T03:11:55.676Z,80.41
2019-06-26T03:16:00.875Z,80.65
2019-06-26T03:20:06.441Z,80.92
2019-06-26T03:24:11.581Z,81.19
2019-06-26T03:28:16.716Z,79.93
2019-06-26T03:32:21.754Z,79.50
2019-06-26T03:36:26.915Z,79.96
2019-06-26T03:40:32.348Z,80.61
2019-06-26T03:44:37.741Z,81.30
2019-06-26T03:48:42.832Z,81.50
2019-06-26T03:52:48.082Z,81.81
2019-06-26T03:56:53.241Z,81.30
2019-06-26T04:00:58.405Z,81.36
2019-06-26T04:05:03.618Z,81.56
2019-06-26T04:09:08.747Z,82.04
2019-06-26T04:13:13.831Z,82.33
2019-06-26T04:17:19.041Z,82.48
2019-06-26T04:21:24.156Z,82.65
2019-06-26T04:25:29.392Z,82.32
2019-06-26T04:29:34.460Z,82.35
2019-06-26T04:33:39.578Z,82.66
2019-06-26T04:37:44.836Z,82.71
2019-06-26T04:41:50.023Z,82.80
2019-06-26T04:45:58.417Z,82.86
2019-06-26T04:50:02.317Z,83.35
2019-06-26T04:54:07.656Z,83.41
2019-06-26T04:58:13.500Z,83.28
2019-06-26T05:02:18.602Z,82.86
2019-06-26T05:06:23.764Z,82.07
2019-06-26T05:10:29.011Z,79.74
2019-06-26T05:14:34.190Z,78.63
2019-06-26T05:18:39.267Z,77.84
2019-06-26T05:22:44.301Z,78.14
2019-06-26T05:26:49.426Z,78.04
2019-06-26T05:30:54.500Z,77.57
2019-06-26T05:34:59.722Z,78.71
2019-06-26T05:39:07.235Z,78.44
2019-06-26T05:43:12.487Z,78.46
2019-06-26T05:47:17.859Z,76.85
2019-06-26T05:51:22.996Z,75.79
2019-06-26T05:55:28.011Z,76.39
2019-06-26T05:59:33.589Z,76.06
2019-06-26T06:03:38.782Z,77.53
2019-06-26T06:07:43.894Z,77.07
2019-06-26T06:11:49.416Z,77.28
2019-06-26T06:15:54.567Z,78.24
2019-06-26T06:19:59.902Z,78.04
2019-06-26T06:24:05.151Z,76.60
2019-06-26T06:28:10.247Z,76.18
2019-06-26T06:32:15.560Z,75.32
2019-06-26T06:36:21.122Z,74.98
2019-06-26T06:40:26.321Z,74.01
2019-06-26T06:44:31.504Z,73.69
2019-06-26T06:48:36.985Z,73.46
2019-06-26T06:52:42.153Z,72.57
2019-06-26T06:56:47.284Z,71.24
2019-06-26T07:00:52.522Z,70.75
2019-06-26T07:04:57.696Z,70.49
2019-06-26T07:09:02.771Z,70.28
2019-06-26T07:13:07.932Z,70.81
2019-06-26T07:17:20.553Z,71.46
2019-06-26T07:21:20.203Z,69.23
2019-06-26T07:25:25.777Z,69.98
2019-06-26T07:29:30.949Z,69.36
2019-06-26T07:33:36.263Z,68.41
2019-06-26T07:37:41.493Z,68.95
2019-06-26T07:41:46.725Z,69.33
2019-06-26T07:45:51.847Z,68.92
2019-06-26T07:49:57.012Z,69.34
2019-06-26T07:54:02.257Z,68.37
2019-06-26T07:58:07.460Z,68.95
2019-06-26T08:02:13.991Z,68.27
2019-06-26T08:06:19.564Z,66.73
2019-06-26T08:10:24.705Z,67.59
2019-06-26T08:14:29.791Z,67.33
2019-06-26T08:18:34.978Z,65.56
2019-06-26T08:22:40.123Z,64.75
2019-06-26T08:26:45.286Z,63.70
2019-06-26T08:30:50.453Z,65.22
2019-06-26T08:35:05.590Z,64.92
2019-06-26T08:39:10.746Z,63.50
2019-06-26T08:43:15.842Z,65.04
2019-06-26T08:47:21.039Z,62.79
2019-06-26T08:51:26.287Z,60.82
2019-06-26T08:55:31.810Z,59.78
2019-06-26T08:59:37.038Z,58.89
2019-06-26T09:03:42.300Z,58.20
2019-06-26T09:07:47.530Z,58.00
2019-06-26T09:11:52.678Z,57.56
2019-06-26T09:15:57.857Z,56.28
2019-06-26T09:20:03.022Z,57.02
2019-06-26T09:24:08.255Z,55.95
2019-06-26T09:28:13.473Z,56.51
2019-06-26T09:32:18.950Z,56.23
2019-06-26T09:36:24.424Z,55.37
2019-06-26T09:40:32.006Z,54.66
2019-06-26T09:44:36.802Z,49.97
2019-06-26T09:48:52.079Z,45.54
2019-06-26T09:52:48.965Z,46.26
2019-06-26T09:56:54.147Z,42.60
2019-06-26T10:00:59.454Z,44.45
2019-06-26T10:05:05.259Z,45.53
2019-06-26T10:09:10.445Z,43.01
2019-06-26T10:13:16.042Z,44.64
2019-06-26T10:17:21.212Z,38.83
2019-06-26T10:21:26.340Z,38.39
2019-06-26T10:25:31.553Z,44.92
2019-06-26T10:29:36.682Z,42.90
2019-06-26T10:33:42.093Z,38.90
2019-06-26T10:37:47.162Z,38.34
2019-06-26T10:41:54.842Z,37.48
2019-06-26T10:45:59.048Z,38.66
2019-06-26T10:50:04.453Z,38.23
2019-06-26T10:54:09.571Z,38.00
2019-06-26T10:58:14.763Z,37.83
2019-06-26T11:02:19.813Z,37.69
2019-06-26T11:06:24.888Z,37.20
2019-06-26T11:10:30.122Z,34.55
2019-06-26T11:14:35.226Z,37.06
2019-06-26T11:18:40.408Z,33.35
2019-06-26T11:22:45.538Z,34.39
2019-06-26T11:26:50.685Z,35.77
2019-06-26T11:30:55.778Z,37.83
2019-06-26T11:35:05.036Z,37.00
2019-06-26T11:39:10.713Z,37.61
2019-06-26T11:43:16.114Z,35.32
2019-06-26T11:47:22.322Z,34.50
2019-06-26T11:51:27.460Z,37.79
2019-06-26T11:55:32.524Z,37.64
2019-06-26T11:59:37.613Z,33.11
2019-06-26T12:03:42.732Z,32.41
2019-06-26T12:07:47.905Z,34.17
2019-06-26T12:11:52.996Z,31.16
2019-06-26T12:15:59.135Z,33.38
2019-06-26T12:20:17.791Z,32.96
2019-06-26T12:24:11.236Z,31.81
2019-06-26T12:28:16.347Z,35.26
2019-06-26T12:32:21.477Z,33.66
2019-06-26T12:36:26.681Z,31.56
2019-06-26T12:40:31.782Z,33.83
2019-06-26T12:44:37.199Z,36.22
2019-06-26T12:48:42.269Z,35.48
2019-06-26T12:52:47.325Z,32.39
2019-06-26T12:56:52.363Z,35.14
2019-06-26T13:00:57.446Z,35.67
2019-06-26T13:05:02.739Z,36.73
2019-06-26T13:09:08.625Z,35.13
2019-06-26T13:13:14.643Z,34.40
2019-06-26T13:17:19.758Z,32.59
2019-06-26T13:21:24.836Z,33.34
2019-06-26T13:25:29.964Z,31.67
2019-06-26T13:29:35.025Z,33.14
2019-06-26T13:33:40.231Z,33.77
2019-06-26T13:37:45.287Z,34.51
2019-06-26T13:41:50.335Z,36.27
2019-06-26T13:45:58.631Z,34.22
2019-06-26T13:50:02.927Z,35.40
2019-06-26T13:54:08.155Z,37.70
2019-06-26T13:58:13.235Z,35.41
2019-06-26T14:02:19.964Z,37.13
2019-06-26T14:06:25.246Z,36.07
2019-06-26T14:10:30.341Z,39.05
2019-06-26T14:14:52.594Z,35.71
2019-06-26T14:18:42.306Z,35.93
2019-06-26T14:22:47.582Z,31.70
2019-06-26T14:26:52.839Z,31.00
2019-06-26T14:30:57.914Z,33.03
2019-06-26T14:35:03.029Z,30.61
2019-06-26T14:39:08.247Z,37.19
2019-06-26T14:43:13.920Z,33.80
2019-06-26T14:47:19.033Z,32.91
2019-06-26T14:51:24.092Z,31.59
2019-06-26T14:55:29.110Z,33.98
2019-06-26T14:59:34.506Z,33.69
2019-06-26T15:03:39.834Z,34.17
2019-06-26T15:07:44.916Z,30.15
2019-06-26T15:11:49.981Z,29.76
2019-06-26T15:15:55.212Z,30.13
2019-06-26T15:24:12.882Z,35.44
2019-06-26T15:28:18.056Z,30.93
2019-06-26T15:32:24.475Z,35.40
2019-06-26T15:36:29.695Z,34.70
2019-06-26T15:40:35.376Z,31.83
2019-06-26T15:44:40.742Z,34.54
2019-06-26T15:48:46.022Z,32.99
2019-06-26T15:52:51.214Z,33.76
2019-06-26T15:56:56.369Z,35.23
2019-06-26T16:01:01.702Z,37.67
2019-06-26T16:05:07.677Z,37.76
2019-06-26T16:09:12.740Z,37.10
2019-06-26T16:13:17.837Z,36.13
2019-06-26T16:17:39.170Z,40.65
2019-06-26T16:21:44.275Z,37.55
2019-06-26T16:25:49.810Z,36.14
2019-06-26T16:29:54.892Z,36.46
2019-06-26T16:34:00.472Z,37.20
2019-06-26T16:38:05.847Z,38.81
2019-06-26T16:42:10.983Z,40.18
2019-06-26T16:46:16.185Z,41.52
2019-06-26T16:50:21.439Z,43.43
2019-06-26T16:54:26.621Z,40.94
2019-06-26T16:58:31.807Z,41.02
2019-06-26T17:02:36.952Z,39.26
2019-06-26T17:06:42.118Z,39.27
2019-06-26T17:10:47.474Z,40.41
2019-06-26T17:14:53.011Z,38.26
2019-06-26T17:19:02.829Z,43.20
2019-06-26T17:23:12.802Z,42.79
2019-06-26T17:27:17.959Z,41.50
2019-06-26T17:31:23.167Z,41.98
2019-06-26T17:35:28.384Z,41.59
2019-06-26T17:39:33.483Z,41.87
2019-06-26T17:43:38.686Z,41.40
2019-06-26T17:47:43.996Z,42.26
2019-06-26T17:51:49.275Z,42.86
2019-06-26T17:55:54.422Z,42.48
2019-06-26T17:59:59.693Z,43.74
2019-06-26T18:04:06.092Z,44.52
2019-06-26T18:08:17.966Z,44.54
2019-06-26T18:12:23.374Z,46.67
2019-06-26T18:16:28.570Z,47.44
2019-06-26T18:20:33.740Z,48.47
2019-06-26T18:24:38.987Z,48.21
2019-06-26T18:28:44.124Z,49.51
2019-06-26T18:32:49.254Z,49.15
2019-06-26T18:36:54.418Z,49.19
2019-06-26T18:40:59.532Z,50.09
2019-06-26T18:45:05.281Z,50.44
2019-06-26T18:49:10.892Z,50.67
2019-06-26T18:53:17.065Z,51.53
2019-06-26T18:57:22.615Z,51.91
2019-06-26T19:01:27.797Z,51.61
2019-06-26T19:05:32.907Z,51.81
2019-06-26T19:09:38.371Z,51.73
2019-06-26T19:13:43.566Z,53.02
2019-06-26T19:17:48.691Z,52.31
2019-06-26T19:21:53.801Z,52.34
2019-06-26T19:25:59.226Z,54.82
2019-06-26T19:30:05.033Z,55.42
2019-06-26T19:34:10.199Z,55.65
2019-06-26T19:38:15.431Z,55.94
2019-06-26T19:42:20.587Z,56.63
2019-06-26T19:46:26.169Z,57.53
2019-06-26T19:50:31.724Z,57.20
2019-06-26T19:54:37.111Z,57.17
2019-06-26T19:58:42.677Z,58.22
2019-06-26T20:02:47.897Z,58.79
2019-06-26T20:06:53.001Z,60.77
2019-06-26T20:10:58.168Z,60.21
2019-06-26T20:15:03.348Z,61.30
2019-06-26T20:19:09.223Z,61.07
2019-06-26T20:23:25.012Z,61.60
2019-06-26T20:27:31.884Z,61.84
2019-06-26T20:31:37.160Z,62.49
2019-06-26T20:35:42.259Z,62.50
2019-06-26T20:39:47.866Z,62.35
2019-06-26T20:43:53.075Z,62.34
2019-06-26T20:47:58.209Z,61.78
2019-06-26T20:52:03.395Z,61.96
2019-06-26T20:56:08.614Z,62.07
2019-06-26T21:00:14.114Z,62.00
2019-06-26T21:04:19.280Z,61.42
2019-06-26T21:08:29.310Z,61.45
2019-06-26T21:12:32.658Z,61.64
2019-06-26T21:16:37.886Z,61.99
2019-06-26T21:20:43.141Z,61.03
2019-06-26T21:24:48.237Z,61.50
2019-06-26T21:28:53.409Z,61.88
2019-06-26T21:32:58.611Z,61.48
2019-06-26T21:37:03.707Z,62.28
2019-06-26T21:41:08.854Z,62.36
2019-06-26T21:45:14.283Z,63.33
2019-06-26T21:49:19.384Z,63.08
2019-06-26T21:53:24.524Z,63.80
2019-06-26T21:57:47.845Z,63.31
2019-06-26T22:02:10.901Z,63.65
2019-06-26T22:06:30.077Z,64.26
2019-06-26T22:10:45.819Z,64.41
2019-06-26T22:14:51.113Z,64.68
2019-06-26T22:18:56.265Z,64.09
2019-06-26T22:23:01.422Z,63.70
2019-06-26T22:27:06.535Z,64.21
2019-06-26T22:31:11.712Z,64.57
2019-06-26T22:35:17.127Z,64.65
2019-06-26T22:39:22.393Z,64.98
2019-06-26T22:43:27.909Z,64.72
2019-06-26T22:47:33.202Z,64.64
2019-06-26T22:51:38.408Z,65.20
2019-06-26T22:55:43.701Z,65.75
2019-06-26T22:59:48.846Z,66.42
2019-06-26T23:03:53.965Z,67.22
2019-06-26T23:07:59.165Z,67.34
2019-06-26T23:12:04.400Z,67.38
2019-06-26T23:16:09.740Z,68.00
2019-06-26T23:20:14.891Z,68.22
2019-06-26T23:24:20.020Z,68.16
2019-06-26T23:28:25.413Z,68.92
2019-06-26T23:32:30.430Z,68.75
2019-06-26T23:36:35.597Z,68.95
2019-06-26T23:40:41.014Z,69.52
2019-06-26T23:44:46.204Z,69.61
2019-06-26T23:48:51.308Z,69.83
2019-06-26T23:52:56.437Z,70.35
2019-06-26T23:57:02.514Z,69.62
